DW9106 Madrid ES current weather conditions

sailwx.info

Wind from 039 at 0 knots gusting 2

Air temperature 7.2° C
Dewpoint -2.8° C

Last reported at 2015-Jan-26 23:37 UTC.
Time now 2015-Jan-27 01:05 UTC

Location: N 40°23' W 003°38'.
View on Google Maps.

See reports from other nearby stations

  
Tides and Currents Weather Stations Pressure Air Temp Water Temp Dewpoint Dewpoint Depression Visibility Wind Speed Wind Dir Waves Ship Positions
date/time (UTC)wind fromknots sea level pressurealtimeterstation pressurevisibilityair tempwater tempwave heightnotes
2015-Jan-26 23:37 039 0 gusting 2 7.2
2015-Jan-26 23:22 039 7.8
2015-Jan-26 23:07 067 2 gusting 4 7.8
2015-Jan-26 22:52 054 3 gusting 6 8.3
2015-Jan-26 22:37 034 3 gusting 6 7.8
2015-Jan-26 22:22 063 0 gusting 7 8.3
2015-Jan-26 22:07 019 5 gusting 8 8.3
2015-Jan-26 21:51 061 0 gusting 4 8.3
2015-Jan-26 21:36 056 1 gusting 5 8.9
2015-Jan-26 21:21 273 9.4
2015-Jan-26 21:06 020 7 gusting 10 9.4
2015-Jan-26 20:51 036 0 gusting 5 8.9
2015-Jan-26 20:36 063 9.4
2015-Jan-26 20:21 048 3 gusting 8 10.0
2015-Jan-26 20:06 005 5 gusting 10 10.0
2015-Jan-26 19:51 055 5 gusting 10 10.0
2015-Jan-26 19:36 042 3 gusting 6 10.0
2015-Jan-26 19:21 055 4 gusting 9 10.0
2015-Jan-26 19:06 038 3 gusting 7 10.6
2015-Jan-26 18:51 039 3 gusting 7 11.1
2015-Jan-26 18:36 059 11.1
2015-Jan-26 18:21 059 11.7
2015-Jan-26 18:06 049 0 gusting 2 11.7
2015-Jan-26 17:51 053 11.7
2015-Jan-26 17:36 053 12.2
2015-Jan-26 17:21 053 12.2
2015-Jan-26 17:06 053 12.8
2015-Jan-26 16:51 150 12.8
2015-Jan-26 16:36 151 13.3
2015-Jan-26 16:21 212 13.9
2015-Jan-26 16:06 223 14.4
2015-Jan-26 15:51 108 14.4
2015-Jan-26 15:36 108 0 gusting 2 13.9
2015-Jan-26 15:21 102 13.3
2015-Jan-26 15:06 148 12.8
2015-Jan-26 14:51 057 12.8
2015-Jan-26 14:36 194 0 gusting 3 13.3
2015-Jan-26 14:21 161 0 gusting 2 13.3
2015-Jan-26 14:06 203 0 gusting 3 12.8
2015-Jan-26 13:51 124 0 gusting 3 12.2
2015-Jan-26 13:36 130 0 gusting 3 12.8
2015-Jan-26 13:21 103 0 gusting 2 12.2
2015-Jan-26 13:06 107 0 gusting 4 11.7
2015-Jan-26 12:51 134 0 gusting 3 12.2
2015-Jan-26 12:36 151 0 gusting 4 11.7
2015-Jan-26 12:21 123 11.7
2015-Jan-26 12:06 141 0 gusting 2 10.6
2015-Jan-26 11:51 133 1 gusting 3 10.0
2015-Jan-26 11:36 109 10.0
2015-Jan-26 11:21 215 0 gusting 3 9.4
2015-Jan-26 11:06 249 1 gusting 4 8.3
2015-Jan-26 10:51 180 1 gusting 5 8.3
2015-Jan-26 10:35 242 0 gusting 4 7.8
2015-Jan-26 10:20 265 0 gusting 3 7.2
2015-Jan-26 10:05 192 0 gusting 3 7.2
2015-Jan-26 09:50 161 0 gusting 3 7.2
2015-Jan-26 09:35 162 6.1
2015-Jan-26 09:20 182 6.1
2015-Jan-26 09:05 219 0 gusting 3 5.6
2015-Jan-26 08:50 015 5.6
2015-Jan-26 08:35 015 3.9
2015-Jan-26 08:20 015 2.8
2015-Jan-26 08:05 015 1.7
2015-Jan-26 07:50 015 1.1
2015-Jan-26 07:35 015 0.6
2015-Jan-26 07:20 015 0.6
2015-Jan-26 07:05 015 1.1
2015-Jan-26 06:50 018 1.1
2015-Jan-26 05:49 018 2.2
2015-Jan-26 05:34 259 1 gusting 3 2.2
2015-Jan-26 05:19 239 1.7
2015-Jan-26 05:04 239 1.7
2015-Jan-26 04:49 239 1.7
2015-Jan-26 04:34 239 2.2
2015-Jan-26 04:19 267 0 gusting 2 2.2
2015-Jan-26 04:04 030 2.2
2015-Jan-26 03:49 030 2.2
2015-Jan-26 03:34 300 2.8
2015-Jan-26 03:19 050 1 gusting 4 3.3
2015-Jan-26 03:04 055 0 gusting 2 3.9
2015-Jan-26 02:49 297 3.9
2015-Jan-26 02:34 297 3.9
2015-Jan-26 02:19 297 4.4
2015-Jan-26 02:04 297 4.4
2015-Jan-26 01:49 299 0 gusting 2 4.4
2015-Jan-26 01:34 092 3.3
2015-Jan-26 01:19 092 3.3
2015-Jan-26 01:04 092 3.9
2015-Jan-26 00:49 092 3.9
2015-Jan-26 00:34 092 3.9
2015-Jan-26 00:19 092 3.9
2015-Jan-26 00:04 092 4.4
2015-Jan-25 23:49 092 0 gusting 2 4.4
2015-Jan-25 23:34 092 5.0
2015-Jan-25 23:19 092 5.6
2015-Jan-25 23:04 046 5.6
2015-Jan-25 22:49 046 1 gusting 2 5.6
2015-Jan-25 22:34 009 5.6
2015-Jan-25 22:19 009 5.6
2015-Jan-25 22:04 269 5.6
2015-Jan-25 21:49 058 5.6
2015-Jan-25 21:34 080 0 gusting 6 6.7
2015-Jan-25 21:19 049 3 gusting 6 6.7
2015-Jan-25 21:04 034 6 gusting 9 7.2
2015-Jan-25 20:49 033 4 gusting 8 7.2
2015-Jan-25 20:34 048 4 gusting 8 7.8
2015-Jan-25 20:19 055 3 gusting 9 7.8
2015-Jan-25 20:04 040 4 gusting 8 7.8
2015-Jan-25 19:49 044 3 gusting 8 7.8
2015-Jan-25 19:34 047 3 gusting 9 7.8
2015-Jan-25 19:19 059 3 gusting 6 8.3
2015-Jan-25 19:04 036 1 gusting 4 8.9
2015-Jan-25 18:49 086 0 gusting 11 9.4
2015-Jan-25 18:34 077 3 gusting 9 9.4
2015-Jan-25 18:19 073 1 gusting 6 9.4
2015-Jan-25 18:04 061 3 gusting 8 9.4
2015-Jan-25 17:49 049 3 gusting 7 10.0
2015-Jan-25 17:34 058 2 gusting 6 10.0
2015-Jan-25 17:19 092 3 gusting 8 10.6
2015-Jan-25 17:04 043 4 gusting 7 11.7
2015-Jan-25 16:49 054 2 gusting 7 12.2
2015-Jan-25 16:34 058 2 gusting 7 12.2
2015-Jan-25 16:19 046 1 gusting 6 12.8
2015-Jan-25 16:04 053 1 gusting 6 12.8
2015-Jan-25 15:49 043 2 gusting 6 13.3
2015-Jan-25 15:34 057 2 gusting 6 13.3
2015-Jan-25 15:18 063 2 gusting 6 12.8
2015-Jan-25 15:03 084 2 gusting 6 13.9
2015-Jan-25 14:48 306 0 gusting 3 13.9
2015-Jan-25 14:33 057 2 gusting 8 13.3
2015-Jan-25 14:18 063 3 gusting 6 13.3
2015-Jan-25 14:03 046 2 gusting 6 12.8
2015-Jan-25 13:48 047 2 gusting 4 12.2
2015-Jan-25 13:33 040 2 gusting 4 12.8
2015-Jan-25 13:18 171 12.2
2015-Jan-25 13:03 152 0 gusting 3 11.7
2015-Jan-25 12:48 115 0 gusting 4 11.7
2015-Jan-25 12:33 114 0 gusting 3 11.1
2015-Jan-25 12:18 119 10.6
2015-Jan-25 12:03 111 0 gusting 6 10.6
2015-Jan-25 11:48 062 3 gusting 6 11.1
2015-Jan-25 11:33 083 2 gusting 8 10.6
2015-Jan-25 11:18 061 4 gusting 11 10.6
2015-Jan-25 11:03 046 3 gusting 7 10.6
2015-Jan-25 10:48 055 1 gusting 9 10.0
2015-Jan-25 10:33 019 5 gusting 10 9.4
2015-Jan-25 10:18 049 8.9
2015-Jan-25 10:03 259 0 gusting 2 7.8
2015-Jan-25 09:47 247 1 gusting 4 7.2
2015-Jan-25 09:32 262 6.7
2015-Jan-25 09:17 262 6.1
2015-Jan-25 09:02 153 0 gusting 3 6.1
2015-Jan-25 08:47 225 5.6
2015-Jan-25 08:32 134 0 gusting 2 5.6
2015-Jan-25 08:17 080 5.0
2015-Jan-25 08:02 080 3.9
2015-Jan-25 07:47 080 3.3
2015-Jan-25 07:32 080 2.8
2015-Jan-25 07:17 080 3.3
2015-Jan-25 07:02 350 3.3
2015-Jan-25 06:47 005 0 gusting 2 2.8
2015-Jan-25 06:32 005 3.3
2015-Jan-25 06:17 326 3.3
2015-Jan-25 06:02 028 0 gusting 2 2.8
2015-Jan-25 05:47 005 3.3
2015-Jan-25 05:32 005 2.8
2015-Jan-25 05:17 005 3.3
2015-Jan-25 05:02 289 3.3
2015-Jan-25 04:47 289 3.9
2015-Jan-25 04:32 289 4.4
2015-Jan-25 04:17 202 4.4
2015-Jan-25 04:02 254 4.4
2015-Jan-25 03:47 253 2 gusting 5 5.6
2015-Jan-25 03:32 040 5.6
2015-Jan-25 03:17 267 1 gusting 3 6.1
2015-Jan-25 03:01 035 0 gusting 4 5.6
2015-Jan-25 02:46 111 0 gusting 2 5.6
2015-Jan-25 02:31 111 6.1
2015-Jan-25 02:16 121 6.7
2015-Jan-25 02:01 105 7.2
2015-Jan-25 01:46 057 1 gusting 6 7.8
2015-Jan-25 01:31 064 7.8
2015-Jan-25 01:16 085 8.3
2015-Jan-25 01:01 195 0 gusting 5 8.3